createdAt,value
2019-02-15T00:00:21.655Z,100.00
2019-02-15T00:02:50.373Z,100.00
2019-02-15T00:05:19.032Z,100.00
2019-02-15T00:07:47.725Z,100.00
2019-02-15T00:10:16.290Z,100.00
2019-02-15T00:12:45.001Z,100.00
2019-02-15T00:15:13.661Z,100.00
2019-02-15T00:17:52.803Z,100.00
2019-02-15T00:20:39.031Z,100.00
2019-02-15T00:23:07.648Z,100.00
2019-02-15T00:25:36.409Z,100.00
2019-02-15T00:28:05.102Z,100.00
2019-02-15T00:30:33.803Z,100.00
2019-02-15T00:33:02.458Z,100.00
2019-02-15T00:35:31.157Z,100.00
2019-02-15T00:37:59.800Z,100.00
2019-02-15T00:40:28.519Z,100.00
2019-02-15T00:42:57.096Z,100.00
2019-02-15T00:45:27.471Z,100.00
2019-02-15T00:48:00.307Z,100.00
2019-02-15T00:50:30.599Z,100.00
2019-02-15T00:53:03.687Z,100.00
2019-02-15T00:55:36.722Z,100.00
2019-02-15T00:58:07.495Z,100.00
2019-02-15T01:00:40.384Z,100.00
2019-02-15T01:03:16.646Z,100.00
2019-02-15T01:05:59.070Z,100.00
2019-02-15T01:08:35.356Z,100.00
2019-02-15T01:11:06.559Z,100.00
2019-02-15T01:13:35.209Z,100.00
2019-02-15T01:16:03.855Z,100.00
2019-02-15T01:18:32.546Z,100.00
2019-02-15T01:21:01.115Z,100.00
2019-02-15T01:23:29.791Z,100.00
2019-02-15T01:26:00.176Z,100.00
2019-02-15T01:28:33.423Z,100.00
2019-02-15T01:31:20.043Z,100.00
2019-02-15T01:33:59.987Z,100.00
2019-02-15T01:36:30.225Z,100.00
2019-02-15T01:39:00.460Z,100.00
2019-02-15T01:41:48.152Z,100.00
2019-02-15T01:44:18.373Z,100.00
2019-02-15T01:46:51.416Z,100.00
2019-02-15T01:49:20.170Z,100.00
2019-02-15T01:51:48.745Z,100.00
2019-02-15T01:54:17.458Z,100.00
2019-02-15T01:56:46.031Z,100.00
2019-02-15T01:59:14.618Z,100.00
2019-02-15T02:01:43.274Z,100.00
2019-02-15T02:04:11.970Z,100.00
2019-02-15T02:06:40.656Z,100.00
2019-02-15T02:09:09.401Z,100.00
2019-02-15T02:11:38.091Z,100.00
2019-02-15T02:14:06.711Z,100.00
2019-02-15T02:16:35.344Z,100.00
2019-02-15T02:19:04.026Z,100.00
2019-02-15T02:21:32.726Z,100.00
2019-02-15T02:24:01.297Z,100.00
2019-02-15T02:26:29.947Z,100.00
2019-02-15T02:28:58.521Z,100.00
2019-02-15T02:31:27.174Z,100.00
2019-02-15T02:33:55.818Z,100.00
2019-02-15T02:36:36.360Z,100.00
2019-02-15T02:39:05.561Z,100.00
2019-02-15T02:41:37.835Z,100.00
2019-02-15T02:44:06.435Z,100.00
2019-02-15T02:46:34.924Z,100.00
2019-02-15T02:49:03.533Z,100.00
2019-02-15T02:51:32.079Z,100.00
2019-02-15T02:54:00.709Z,100.00
2019-02-15T02:56:29.330Z,100.00
2019-02-15T02:58:57.942Z,100.00
2019-02-15T03:01:26.573Z,100.00
2019-02-15T03:03:55.114Z,100.00
2019-02-15T03:06:23.668Z,100.00
2019-02-15T03:08:52.284Z,100.00
2019-02-15T03:11:20.891Z,100.00
2019-02-15T03:13:49.569Z,100.00
2019-02-15T03:16:18.134Z,100.00
2019-02-15T03:18:46.734Z,100.00
2019-02-15T03:21:19.670Z,100.00
2019-02-15T03:23:48.182Z,100.00
2019-02-15T03:26:16.861Z,100.00
2019-02-15T03:28:45.425Z,100.00
2019-02-15T03:31:14.040Z,100.00
2019-02-15T03:33:42.608Z,100.00
2019-02-15T03:36:12.876Z,100.00
2019-02-15T03:38:43.021Z,100.00
2019-02-15T03:41:28.702Z,100.00
2019-02-15T03:43:57.393Z,100.00
2019-02-15T03:46:26.238Z,100.00
2019-02-15T03:48:54.878Z,100.00
2019-02-15T03:51:23.441Z,100.00
2019-02-15T03:53:52.143Z,100.00
2019-02-15T03:56:20.763Z,100.00
2019-02-15T03:58:49.439Z,100.00
2019-02-15T04:01:18.078Z,100.00
2019-02-15T04:03:46.770Z,100.00
2019-02-15T04:06:15.299Z,100.00
2019-02-15T04:08:43.904Z,100.00
2019-02-15T04:11:12.477Z,100.00
2019-02-15T04:13:41.183Z,100.00
2019-02-15T04:16:09.905Z,100.00
2019-02-15T04:18:38.597Z,100.00
2019-02-15T04:21:07.160Z,100.00
2019-02-15T04:23:38.597Z,100.00
2019-02-15T04:26:07.149Z,100.00
2019-02-15T04:28:35.753Z,100.00
2019-02-15T04:31:04.455Z,100.00
2019-02-15T04:33:32.918Z,100.00
2019-02-15T04:36:07.530Z,100.00
2019-02-15T04:38:36.181Z,100.00
2019-02-15T04:41:04.867Z,100.00
2019-02-15T04:43:33.538Z,100.00
2019-02-15T04:46:02.107Z,100.00
2019-02-15T04:48:30.690Z,100.00
2019-02-15T04:50:59.346Z,100.00
2019-02-15T04:53:28.078Z,100.00
2019-02-15T04:55:56.738Z,100.00
2019-02-15T04:58:25.340Z,100.00
2019-02-15T05:00:54.040Z,100.00
2019-02-15T05:03:22.760Z,100.00
2019-02-15T05:05:51.441Z,100.00
2019-02-15T05:08:20.123Z,100.00
2019-02-15T05:10:48.765Z,100.00
2019-02-15T05:13:22.073Z,100.00
2019-02-15T05:15:50.706Z,100.00
2019-02-15T05:18:19.299Z,100.00
2019-02-15T05:20:47.977Z,100.00
2019-02-15T05:23:16.627Z,100.00
2019-02-15T05:25:45.282Z,100.00
2019-02-15T05:28:13.967Z,100.00
2019-02-15T05:30:42.537Z,100.00
2019-02-15T05:33:11.156Z,100.00
2019-02-15T05:35:39.865Z,100.00
2019-02-15T05:38:08.535Z,100.00
2019-02-15T05:40:37.267Z,100.00
2019-02-15T05:43:05.862Z,100.00
2019-02-15T05:45:37.554Z,100.00
2019-02-15T05:48:06.165Z,100.00
2019-02-15T05:50:34.794Z,100.00
2019-02-15T05:53:03.426Z,100.00
2019-02-15T05:55:31.923Z,100.00
2019-02-15T05:58:01.742Z,100.00
2019-02-15T06:00:37.000Z,100.00
2019-02-15T06:03:00.692Z,100.00
2019-02-15T06:05:29.226Z,100.00
2019-02-15T06:07:58.083Z,100.00
2019-02-15T06:10:29.919Z,100.00
2019-02-15T06:12:58.705Z,100.00
2019-02-15T06:15:27.448Z,100.00
2019-02-15T06:18:09.155Z,100.00
2019-02-15T06:20:37.865Z,100.00
2019-02-15T06:23:08.086Z,100.00
2019-02-15T06:25:37.101Z,100.00
2019-02-15T06:28:05.995Z,100.00
2019-02-15T06:30:34.922Z,100.00
2019-02-15T06:33:03.873Z,100.00
2019-02-15T06:35:33.189Z,100.00
2019-02-15T06:38:03.432Z,100.00
2019-02-15T06:40:32.254Z,100.00
2019-02-15T06:43:01.047Z,100.00
2019-02-15T06:45:30.076Z,100.00
2019-02-15T06:47:59.081Z,100.00
2019-02-15T06:50:28.855Z,100.00
2019-02-15T06:52:57.597Z,100.00
2019-02-15T06:55:26.348Z,100.00
2019-02-15T06:57:55.142Z,100.00
2019-02-15T07:00:43.078Z,100.00
2019-02-15T07:03:29.522Z,100.00
2019-02-15T07:06:04.018Z,100.00
2019-02-15T07:08:33.385Z,100.00
2019-02-15T07:11:07.578Z,100.00
2019-02-15T07:13:36.457Z,100.00
2019-02-15T07:16:05.184Z,100.00
2019-02-15T07:18:33.958Z,100.00
2019-02-15T07:21:02.680Z,100.00
2019-02-15T07:23:34.341Z,100.00
2019-02-15T07:26:04.319Z,100.00
2019-02-15T07:28:33.137Z,100.00
2019-02-15T07:31:01.929Z,100.00
2019-02-15T07:33:30.782Z,100.00
2019-02-15T07:35:59.470Z,100.00
2019-02-15T07:38:28.622Z,100.00
2019-02-15T07:41:04.697Z,100.00
2019-02-15T07:43:34.039Z,100.00
2019-02-15T07:46:02.594Z,100.00
2019-02-15T07:48:31.284Z,100.00
2019-02-15T07:51:09.132Z,100.00
2019-02-15T07:53:30.272Z,100.00
2019-02-15T07:55:58.980Z,100.00
2019-02-15T07:58:27.463Z,100.00
2019-02-15T08:00:56.618Z,100.00
2019-02-15T08:03:25.236Z,100.00
2019-02-15T08:05:53.991Z,100.00
2019-02-15T08:08:25.690Z,100.00
2019-02-15T08:10:54.331Z,100.00
2019-02-15T08:13:26.030Z,100.00
2019-02-15T08:15:54.886Z,100.00
2019-02-15T08:18:23.785Z,100.00
2019-02-15T08:20:54.301Z,100.00
2019-02-15T08:23:23.306Z,100.00
2019-02-15T08:25:52.241Z,100.00
2019-02-15T08:28:27.775Z,100.00
2019-02-15T08:31:00.216Z,100.00
2019-02-15T08:36:20.445Z,100.00
2019-02-15T08:38:49.328Z,100.00
2019-02-15T08:41:21.263Z,100.00
2019-02-15T08:44:00.431Z,100.00
2019-02-15T08:46:35.741Z,100.00
2019-02-15T08:49:05.633Z,100.00
2019-02-15T08:51:34.319Z,100.00
2019-02-15T08:54:05.202Z,100.00
2019-02-15T08:56:38.574Z,100.00
2019-02-15T08:59:08.848Z,100.00
2019-02-15T09:01:41.421Z,100.00
2019-02-15T09:04:12.524Z,100.00
2019-02-15T09:06:42.699Z,100.00
2019-02-15T09:09:13.452Z,100.00
2019-02-15T09:11:42.102Z,100.00
2019-02-15T09:14:13.560Z,100.00
2019-02-15T09:16:42.285Z,100.00
2019-02-15T09:19:10.995Z,100.00
2019-02-15T09:21:39.882Z,100.00
2019-02-15T09:24:08.613Z,100.00
2019-02-15T09:26:37.507Z,100.00
2019-02-15T09:29:11.820Z,100.00
2019-02-15T09:31:45.641Z,100.00
2019-02-15T09:34:14.502Z,100.00
2019-02-15T09:36:43.308Z,100.00
2019-02-15T09:39:12.046Z,100.00
2019-02-15T09:41:40.620Z,100.00
2019-02-15T09:44:09.311Z,100.00
2019-02-15T09:46:37.924Z,100.00
2019-02-15T09:49:06.708Z,100.00
2019-02-15T09:51:37.489Z,100.00
2019-02-15T09:54:06.871Z,100.00
2019-02-15T09:56:35.648Z,100.00
2019-02-15T09:59:04.274Z,100.00
2019-02-15T10:01:34.950Z,100.00
2019-02-15T10:04:03.837Z,100.00
2019-02-15T10:06:32.403Z,100.00
2019-02-15T10:09:00.997Z,100.00
2019-02-15T10:11:32.377Z,100.00
2019-02-15T10:14:03.857Z,100.00
2019-02-15T10:16:32.468Z,100.00
2019-02-15T10:19:01.131Z,100.00
2019-02-15T10:21:29.681Z,100.00
2019-02-15T10:23:59.049Z,100.00
2019-02-15T10:26:28.277Z,100.00
2019-02-15T10:28:57.446Z,100.00
2019-02-15T10:31:26.199Z,100.00
2019-02-15T10:33:55.077Z,100.00
2019-02-15T10:36:23.850Z,100.00
2019-02-15T10:38:52.687Z,100.00
2019-02-15T10:41:21.325Z,100.00
2019-02-15T10:43:49.986Z,100.00
2019-02-15T10:46:18.935Z,100.00
2019-02-15T10:48:50.663Z,100.00
2019-02-15T10:51:21.156Z,100.00
2019-02-15T10:53:50.332Z,100.00
2019-02-15T10:56:19.053Z,100.00
2019-02-15T10:58:47.769Z,100.00
2019-02-15T11:01:16.571Z,100.00
2019-02-15T11:03:45.350Z,95.29
2019-02-15T11:06:14.081Z,94.33
2019-02-15T11:08:42.848Z,87.66
2019-02-15T11:11:11.534Z,82.24
2019-02-15T11:13:43.800Z,82.68
2019-02-15T11:16:15.739Z,78.63
2019-02-15T11:18:44.568Z,76.15
2019-02-15T11:21:13.276Z,77.06
2019-02-15T11:23:42.021Z,78.93
2019-02-15T11:26:10.824Z,81.81
2019-02-15T11:28:39.523Z,83.55
2019-02-15T11:31:08.278Z,87.77
2019-02-15T11:33:37.042Z,87.43
2019-02-15T11:36:05.777Z,86.77
2019-02-15T11:38:34.569Z,81.63
2019-02-15T11:41:10.926Z,83.93
2019-02-15T11:43:34.861Z,86.24
2019-02-15T11:46:03.635Z,87.12
2019-02-15T11:48:32.343Z,88.60
2019-02-15T11:51:01.480Z,86.90
2019-02-15T11:53:30.168Z,85.87
2019-02-15T11:55:58.835Z,83.46
2019-02-15T11:58:27.504Z,81.43
2019-02-15T12:00:56.282Z,82.42
2019-02-15T12:03:25.032Z,81.53
2019-02-15T12:05:53.923Z,82.96
2019-02-15T12:08:22.606Z,81.52
2019-02-15T12:10:51.265Z,79.67
2019-02-15T12:13:20.699Z,80.79
2019-02-15T12:15:49.503Z,80.48
2019-02-15T12:18:24.202Z,84.66
2019-02-15T12:20:52.857Z,79.70
2019-02-15T12:23:21.617Z,71.44
2019-02-15T12:25:50.373Z,81.18
2019-02-15T12:28:19.475Z,78.55
2019-02-15T12:30:48.606Z,82.17
2019-02-15T12:33:17.273Z,83.51
2019-02-15T12:35:46.068Z,79.26
2019-02-15T12:38:15.485Z,77.38
2019-02-15T12:40:45.593Z,76.79
2019-02-15T12:43:14.221Z,75.59
2019-02-15T12:45:43.057Z,76.34
2019-02-15T12:48:12.387Z,81.15
2019-02-15T12:50:50.532Z,82.50
2019-02-15T12:53:19.318Z,81.57
2019-02-15T12:55:47.962Z,82.39
2019-02-15T12:58:17.184Z,87.33
2019-02-15T13:00:46.276Z,87.42
2019-02-15T13:03:14.974Z,87.56
2019-02-15T13:05:43.600Z,89.46
2019-02-15T13:08:12.213Z,91.58
2019-02-15T13:10:42.249Z,95.33
2019-02-15T13:13:11.214Z,96.96
2019-02-15T13:15:39.929Z,96.24
2019-02-15T13:18:08.620Z,100.00
2019-02-15T13:20:37.345Z,100.00
2019-02-15T13:23:06.204Z,100.00
2019-02-15T13:25:36.855Z,100.00
2019-02-15T13:28:05.370Z,100.00
2019-02-15T13:30:34.096Z,100.00
2019-02-15T13:33:02.925Z,100.00
2019-02-15T13:35:31.617Z,100.00
2019-02-15T13:38:00.330Z,100.00
2019-02-15T13:40:29.077Z,100.00
2019-02-15T13:42:57.780Z,100.00
2019-02-15T13:45:26.479Z,100.00
2019-02-15T13:47:55.149Z,100.00
2019-02-15T13:50:25.220Z,100.00
2019-02-15T13:52:53.865Z,100.00
2019-02-15T13:55:22.695Z,100.00
2019-02-15T13:57:52.000Z,100.00
2019-02-15T14:00:20.875Z,100.00
2019-02-15T14:02:49.607Z,100.00
2019-02-15T14:05:18.297Z,100.00
2019-02-15T14:07:47.079Z,100.00
2019-02-15T14:10:16.041Z,100.00
2019-02-15T14:12:44.760Z,100.00
2019-02-15T14:15:13.846Z,100.00
2019-02-15T14:17:46.299Z,100.00
2019-02-15T14:20:16.410Z,100.00
2019-02-15T14:22:45.059Z,100.00
2019-02-15T14:25:13.751Z,100.00
2019-02-15T14:27:42.431Z,100.00
2019-02-15T14:30:14.730Z,100.00
2019-02-15T14:32:43.372Z,100.00
2019-02-15T14:35:13.715Z,100.00
2019-02-15T14:37:42.417Z,100.00
2019-02-15T14:40:12.174Z,100.00
2019-02-15T14:42:40.843Z,100.00
2019-02-15T14:45:15.361Z,100.00
2019-02-15T14:47:54.935Z,100.00
2019-02-15T14:50:20.274Z,100.00
2019-02-15T14:52:48.807Z,100.00
2019-02-15T14:55:17.376Z,100.00
2019-02-15T14:57:46.606Z,100.00
2019-02-15T15:00:16.052Z,100.00
2019-02-15T15:02:44.671Z,100.00
2019-02-15T15:05:15.086Z,100.00
2019-02-15T15:07:43.970Z,100.00
2019-02-15T15:10:12.818Z,100.00
2019-02-15T15:12:43.922Z,100.00
2019-02-15T15:15:18.599Z,100.00
2019-02-15T15:17:47.151Z,100.00
2019-02-15T15:20:18.442Z,100.00
2019-02-15T15:22:47.023Z,100.00
2019-02-15T15:25:16.150Z,100.00
2019-02-15T15:27:45.128Z,100.00
2019-02-15T15:30:17.159Z,100.00
2019-02-15T15:32:45.773Z,100.00
2019-02-15T15:35:17.380Z,100.00
2019-02-15T15:37:46.045Z,100.00
2019-02-15T15:40:16.780Z,100.00
2019-02-15T15:42:45.338Z,100.00
2019-02-15T15:45:16.736Z,100.00
2019-02-15T15:47:45.436Z,100.00
2019-02-15T15:50:14.243Z,100.00
2019-02-15T15:52:43.429Z,100.00
2019-02-15T15:55:13.498Z,100.00
2019-02-15T15:57:42.228Z,100.00
2019-02-15T16:00:13.612Z,100.00
2019-02-15T16:02:42.186Z,100.00
2019-02-15T16:05:11.194Z,100.00
2019-02-15T16:07:40.374Z,100.00
2019-02-15T16:10:16.924Z,100.00
2019-02-15T16:12:45.512Z,100.00
2019-02-15T16:15:14.790Z,100.00
2019-02-15T16:17:43.384Z,100.00
2019-02-15T16:20:21.184Z,100.00
2019-02-15T16:22:49.989Z,100.00
2019-02-15T16:25:18.670Z,100.00
2019-02-15T16:27:47.374Z,100.00
2019-02-15T16:30:16.477Z,100.00
2019-02-15T16:32:45.162Z,100.00
2019-02-15T16:35:14.063Z,100.00
2019-02-15T16:37:42.761Z,100.00
2019-02-15T16:40:16.109Z,100.00
2019-02-15T16:42:45.000Z,100.00
2019-02-15T16:45:15.007Z,100.00
2019-02-15T16:47:43.879Z,100.00
2019-02-15T16:50:13.202Z,100.00
2019-02-15T16:52:41.808Z,100.00
2019-02-15T16:55:13.237Z,100.00
2019-02-15T16:57:41.085Z,100.00
2019-02-15T17:00:12.164Z,100.00
2019-02-15T17:02:40.789Z,100.00
2019-02-15T17:05:09.746Z,100.00
2019-02-15T17:07:38.393Z,100.00
2019-02-15T17:10:09.278Z,100.00
2019-02-15T17:12:45.269Z,100.00
2019-02-15T17:15:15.017Z,100.00
2019-02-15T17:17:43.622Z,100.00
2019-02-15T17:20:12.284Z,100.00
2019-02-15T17:22:41.178Z,100.00
2019-02-15T17:25:11.667Z,100.00
2019-02-15T17:27:40.297Z,100.00
2019-02-15T17:30:10.972Z,100.00
2019-02-15T17:32:39.628Z,100.00
2019-02-15T17:35:13.159Z,100.00
2019-02-15T17:37:41.799Z,100.00
2019-02-15T17:40:16.706Z,100.00
2019-02-15T17:42:45.401Z,100.00
2019-02-15T17:45:14.986Z,100.00
2019-02-15T17:47:46.964Z,100.00
2019-02-15T17:50:20.190Z,100.00
2019-02-15T17:52:48.763Z,100.00
2019-02-15T17:55:20.231Z,100.00
2019-02-15T17:57:48.913Z,100.00
2019-02-15T18:00:19.439Z,100.00
2019-02-15T18:02:48.284Z,100.00
2019-02-15T18:05:16.870Z,100.00
2019-02-15T18:07:47.103Z,100.00
2019-02-15T18:10:15.707Z,100.00
2019-02-15T18:12:44.341Z,100.00
2019-02-15T18:15:13.016Z,100.00
2019-02-15T18:17:42.240Z,100.00
2019-02-15T18:20:11.274Z,100.00
2019-02-15T18:22:39.824Z,100.00
2019-02-15T18:25:09.160Z,100.00
2019-02-15T18:27:37.844Z,100.00
2019-02-15T18:30:09.734Z,100.00
2019-02-15T18:32:38.424Z,100.00
2019-02-15T18:35:07.724Z,100.00
2019-02-15T18:37:36.417Z,100.00
2019-02-15T18:40:07.922Z,100.00
2019-02-15T18:42:36.611Z,100.00
2019-02-15T18:45:07.699Z,100.00
2019-02-15T18:47:36.425Z,100.00
2019-02-15T18:50:07.480Z,100.00
2019-02-15T18:52:35.984Z,100.00
2019-02-15T18:55:05.564Z,100.00
2019-02-15T18:57:34.198Z,100.00
2019-02-15T19:00:02.937Z,100.00
2019-02-15T19:02:31.618Z,100.00
2019-02-15T19:05:03.356Z,100.00
2019-02-15T19:07:32.045Z,100.00
2019-02-15T19:10:00.843Z,100.00
2019-02-15T19:12:29.474Z,100.00
2019-02-15T19:14:58.130Z,100.00
2019-02-15T19:17:26.649Z,100.00
2019-02-15T19:19:55.728Z,100.00
2019-02-15T19:22:25.140Z,100.00
2019-02-15T19:24:53.838Z,100.00
2019-02-15T19:27:22.478Z,100.00
2019-02-15T19:29:51.262Z,100.00
2019-02-15T19:32:19.959Z,100.00
2019-02-15T19:34:48.656Z,100.00
2019-02-15T19:37:17.361Z,100.00
2019-02-15T19:39:46.025Z,100.00
2019-02-15T19:42:14.635Z,100.00
2019-02-15T19:44:46.529Z,100.00
2019-02-15T19:47:22.163Z,100.00
2019-02-15T19:49:55.428Z,100.00
2019-02-15T19:52:24.201Z,100.00
2019-02-15T19:54:52.764Z,100.00
2019-02-15T19:57:21.319Z,100.00
2019-02-15T19:59:53.619Z,100.00
2019-02-15T20:02:21.737Z,100.00
2019-02-15T20:04:50.650Z,100.00
2019-02-15T20:07:19.406Z,100.00
2019-02-15T20:09:48.086Z,100.00
2019-02-15T20:12:16.714Z,100.00
2019-02-15T20:14:45.402Z,100.00
2019-02-15T20:17:14.049Z,100.00
2019-02-15T20:19:48.677Z,100.00
2019-02-15T20:22:13.094Z,100.00
2019-02-15T20:24:41.736Z,100.00
2019-02-15T20:27:10.349Z,100.00
2019-02-15T20:29:38.984Z,100.00
2019-02-15T20:32:07.672Z,100.00
2019-02-15T20:34:45.187Z,100.00
2019-02-15T20:37:09.094Z,100.00
2019-02-15T20:39:38.454Z,100.00
2019-02-15T20:42:07.105Z,100.00
2019-02-15T20:44:35.603Z,100.00
2019-02-15T20:47:04.287Z,100.00
2019-02-15T20:49:33.349Z,100.00
2019-02-15T20:52:02.020Z,100.00
2019-02-15T20:54:33.581Z,100.00
2019-02-15T20:57:02.866Z,100.00
2019-02-15T20:59:31.380Z,100.00
2019-02-15T21:01:59.947Z,100.00
2019-02-15T21:04:28.558Z,100.00
2019-02-15T21:06:57.893Z,100.00
2019-02-15T21:09:27.124Z,100.00
2019-02-15T21:11:55.691Z,100.00
2019-02-15T21:14:24.299Z,100.00
2019-02-15T21:16:53.559Z,100.00
2019-02-15T21:19:22.242Z,100.00
2019-02-15T21:21:50.769Z,100.00
2019-02-15T21:24:19.250Z,100.00
2019-02-15T21:26:47.823Z,100.00
2019-02-15T21:29:16.745Z,100.00
2019-02-15T21:31:45.283Z,100.00
2019-02-15T21:34:13.984Z,100.00
2019-02-15T21:36:42.661Z,100.00
2019-02-15T21:39:11.299Z,100.00
2019-02-15T21:41:39.984Z,100.00
2019-02-15T21:44:08.545Z,100.00
2019-02-15T21:46:40.290Z,100.00
2019-02-15T21:49:08.905Z,100.00
2019-02-15T21:51:37.529Z,100.00
2019-02-15T21:54:06.158Z,100.00
2019-02-15T21:56:34.842Z,100.00
2019-02-15T21:59:03.339Z,100.00
2019-02-15T22:01:32.017Z,100.00
2019-02-15T22:04:00.912Z,100.00
2019-02-15T22:06:29.606Z,100.00
2019-02-15T22:08:58.083Z,100.00
2019-02-15T22:11:26.702Z,100.00
2019-02-15T22:13:58.183Z,100.00
2019-02-15T22:16:26.747Z,100.00
2019-02-15T22:18:55.293Z,100.00
2019-02-15T22:21:23.837Z,100.00
2019-02-15T22:23:52.529Z,100.00
2019-02-15T22:26:21.090Z,100.00
2019-02-15T22:28:49.688Z,100.00
2019-02-15T22:31:18.325Z,100.00
2019-02-15T22:33:46.946Z,100.00
2019-02-15T22:36:15.588Z,100.00
2019-02-15T22:38:44.066Z,100.00
2019-02-15T22:41:14.356Z,100.00
2019-02-15T22:43:43.617Z,100.00
2019-02-15T22:46:12.303Z,100.00
2019-02-15T22:48:40.975Z,100.00
2019-02-15T22:51:09.590Z,100.00
2019-02-15T22:53:38.200Z,100.00
2019-02-15T22:56:06.845Z,100.00
2019-02-15T22:58:35.783Z,100.00
2019-02-15T23:01:07.224Z,100.00
2019-02-15T23:03:35.846Z,100.00
2019-02-15T23:06:07.301Z,100.00
2019-02-15T23:08:35.901Z,100.00
2019-02-15T23:11:05.635Z,100.00
2019-02-15T23:13:34.326Z,100.00
2019-02-15T23:16:02.964Z,100.00
2019-02-15T23:18:31.595Z,100.00
2019-02-15T23:21:00.207Z,100.00
2019-02-15T23:23:28.690Z,100.00
2019-02-15T23:25:57.290Z,100.00
2019-02-15T23:28:25.851Z,100.00
2019-02-15T23:30:54.536Z,100.00
2019-02-15T23:33:23.022Z,100.00
2019-02-15T23:35:51.652Z,100.00
2019-02-15T23:38:20.196Z,100.00
2019-02-15T23:40:48.754Z,100.00
2019-02-15T23:43:17.361Z,100.00
2019-02-15T23:45:45.993Z,100.00
2019-02-15T23:48:14.679Z,100.00
2019-02-15T23:50:43.382Z,100.00
2019-02-15T23:53:12.057Z,100.00
2019-02-15T23:55:40.693Z,100.00
2019-02-15T23:58:09.407Z,100.00
